»·PEaware :: N313KP KSNA-KPHX

N313KP :: KSNA-KPHX

FLIGHT INFORMATION

Flight Status: Arrived
Operator: Privately registered:
United States
More flights under this callsign
Pilot: Erik A. (17503)
Aircraft: BEECH AIRCRAFT BONANZA
(BE35)
More flights by this aircraft type
Origin: KSNA John Wayne-Orange Co
United States
Destination: KPHX Phoenix Sky Harbor Intl
United States
More flights between these airports :: More routes between these airports
Route: PSP TRM BLH BXK 10AZ VPPIR
File this flight plan on PilotEdge
Remarks: Leg #1 to SimVenture 2020, Oshkosh
Altitude:
(Current/Filed)
7,500ft
Speed:
(Current/Filed)
160kts
Departed: 06-Jul-20 12:08 PM
Arrived: 06-Jul-20 01:56 PM
Distance/Time
Traveled:
293nm/1:48
Distance/Time
To Go:
Arrived

Flight Plot

Page will automatically refresh every two minutes.

Flight plan parsing failed; only flown route is shown


Map Options




Map Legend


Flown Route
Filed Route
Departure Airport
Arrival Airport
Navaid (VOR, NDB)
Fix

Horizontal Profiles

Position Reports

Time Latitude Longitude Heading Altitude Ground
Speed
06-Jul-20 11:39 33.665806 -117.873033 28 59ft 0kts
06-Jul-20 11:40 33.665806 -117.873033 28 59ft 0kts
06-Jul-20 11:41 33.665806 -117.873033 28 59ft 0kts
06-Jul-20 11:42 33.665806 -117.873033 28 59ft 0kts
06-Jul-20 11:43 33.665806 -117.873033 28 59ft 0kts
06-Jul-20 11:44 33.665806 -117.873033 28 59ft 0kts
06-Jul-20 11:46 33.665806 -117.873033 28 59ft 0kts
06-Jul-20 11:47 33.665806 -117.873033 28 59ft 0kts
06-Jul-20 11:48 33.665806 -117.873033 28 59ft 0kts
06-Jul-20 11:49 33.665807 -117.873032 28 59ft 0kts
06-Jul-20 11:50 33.665809 -117.873031 28 59ft 0kts
06-Jul-20 11:51 33.665810 -117.873030 28 59ft 0kts
06-Jul-20 11:52 33.665811 -117.873030 28 59ft 0kts
06-Jul-20 11:53 33.665813 -117.873029 28 59ft 0kts
06-Jul-20 11:54 33.665814 -117.873028 28 59ft 0kts
06-Jul-20 11:55 33.665816 -117.873027 28 59ft 0kts
06-Jul-20 11:56 33.665817 -117.873026 28 59ft 0kts
06-Jul-20 11:57 33.666113 -117.873376 313 59ft 2kts
06-Jul-20 11:58 33.667856 -117.872223 37 59ft 12kts
06-Jul-20 11:59 33.670641 -117.869334 39 59ft 13kts
06-Jul-20 12:00 33.673528 -117.867001 331 59ft 11kts
06-Jul-20 12:01 33.676229 -117.865772 27 59ft 11kts
06-Jul-20 12:02 33.679085 -117.863962 28 59ft 11kts
06-Jul-20 12:03 33.679978 -117.863706 302 59ft 0kts
06-Jul-20 12:04 33.679979 -117.863707 302 59ft 0kts
06-Jul-20 12:05 33.679981 -117.863711 302 59ft 0kts
06-Jul-20 12:06 33.679983 -117.863714 302 59ft 0kts
06-Jul-20 12:06 33.680067 -117.863873 307 59ft 4kts
06-Jul-20 12:08 33.676102 -117.866734 207 59ft 70kts
06-Jul-20 12:08 33.659403 -117.879367 199 634ft 91kts
06-Jul-20 12:09 33.648595 -117.853764 90 1395ft 112kts
06-Jul-20 12:10 33.649873 -117.815806 79 2140ft 116kts
06-Jul-20 12:11 33.661127 -117.777769 70 3049ft 118kts
06-Jul-20 12:12 33.673376 -117.739319 67 4123ft 127kts
06-Jul-20 12:13 33.682937 -117.698991 82 5399ft 126kts
06-Jul-20 12:14 33.692850 -117.658439 60 6215ft 126kts
06-Jul-20 12:15 33.706218 -117.618162 77 6856ft 132kts
06-Jul-20 12:16 33.713512 -117.574294 66 7583ft 147kts
06-Jul-20 12:17 33.735025 -117.524411 60 7592ft 170kts
06-Jul-20 12:18 33.753085 -117.471351 73 7535ft 172kts
06-Jul-20 12:19 33.764100 -117.415212 77 7790ft 175kts
06-Jul-20 12:20 33.777263 -117.357381 61 7513ft 180kts
06-Jul-20 12:21 33.800163 -117.304199 64 7426ft 179kts
06-Jul-20 12:22 33.821461 -117.250135 65 7583ft 178kts
06-Jul-20 12:23 33.841856 -117.195404 72 7603ft 180kts
06-Jul-20 12:24 33.852787 -117.136978 76 7678ft 178kts
06-Jul-20 12:25 33.865927 -117.078944 79 7610ft 179kts
06-Jul-20 12:26 33.872346 -117.019775 83 7759ft 178kts
06-Jul-20 12:27 33.884910 -116.961499 66 7669ft 188kts
06-Jul-20 12:28 33.908892 -116.906546 69 7638ft 185kts
06-Jul-20 12:29 33.918586 -116.846123 92 7449ft 183kts
06-Jul-20 12:30 33.917727 -116.785160 89 7365ft 186kts
06-Jul-20 12:31 33.905613 -116.728638 107 7501ft 173kts
06-Jul-20 12:32 33.892802 -116.673694 107 7581ft 168kts
06-Jul-20 12:33 33.880287 -116.618105 107 7553ft 175kts
06-Jul-20 12:34 33.867227 -116.560844 108 7512ft 181kts
06-Jul-20 12:35 33.854457 -116.504480 108 7505ft 171kts
06-Jul-20 12:36 33.841909 -116.448713 110 7503ft 175kts
06-Jul-20 12:37 33.818406 -116.398301 132 7501ft 176kts
06-Jul-20 12:38 33.786602 -116.354500 133 7499ft 174kts
06-Jul-20 12:39 33.754627 -116.310818 133 7486ft 176kts
06-Jul-20 12:40 33.722429 -116.267235 132 7468ft 175kts
06-Jul-20 12:41 33.691116 -116.224038 133 7455ft 170kts
06-Jul-20 12:42 33.659535 -116.180662 133 7446ft 176kts
06-Jul-20 12:43 33.636240 -116.132769 99 7448ft 171kts
06-Jul-20 12:44 33.629646 -116.076965 100 7446ft 167kts
06-Jul-20 12:45 33.627356 -116.021937 101 7458ft 166kts
06-Jul-20 12:46 33.620833 -115.966931 100 7454ft 166kts
06-Jul-20 12:47 33.614375 -115.911206 100 7454ft 171kts
06-Jul-20 12:48 33.612401 -115.854896 89 7457ft 169kts
06-Jul-20 12:49 33.613977 -115.797032 90 7501ft 179kts
06-Jul-20 12:50 33.615952 -115.737291 90 7505ft 181kts
06-Jul-20 12:51 33.617855 -115.679067 90 7505ft 171kts
06-Jul-20 12:52 33.617733 -115.620513 94 7505ft 180kts
06-Jul-20 12:53 33.616313 -115.561167 94 7508ft 177kts
06-Jul-20 12:54 33.615044 -115.502155 94 7516ft 177kts
06-Jul-20 12:55 33.613759 -115.442350 94 7508ft 182kts
06-Jul-20 12:56 33.612451 -115.382030 94 7516ft 182kts
06-Jul-20 12:57 33.611296 -115.321438 94 7518ft 182kts
06-Jul-20 12:58 33.610310 -115.262402 94 7521ft 174kts
06-Jul-20 12:59 33.609222 -115.203197 93 7522ft 181kts
06-Jul-20 13:00 33.607702 -115.142643 95 7525ft 183kts
06-Jul-20 13:01 33.605878 -115.082533 94 7530ft 179kts
06-Jul-20 13:02 33.604297 -115.022018 93 7523ft 183kts
06-Jul-20 13:03 33.602967 -114.961079 94 7532ft 184kts
06-Jul-20 13:04 33.600852 -114.899978 96 7534ft 184kts
06-Jul-20 13:05 33.599119 -114.838472 95 7534ft 185kts
06-Jul-20 13:06 33.597772 -114.776883 96 7529ft 185kts
06-Jul-20 13:07 33.595079 -114.715368 98 7512ft 185kts
06-Jul-20 13:08 33.592062 -114.654863 93 7515ft 180kts
06-Jul-20 13:09 33.597582 -114.594523 82 7515ft 185kts
06-Jul-20 13:10 33.606074 -114.533271 83 7510ft 188kts
06-Jul-20 13:11 33.614688 -114.471206 82 7515ft 190kts
06-Jul-20 13:12 33.623292 -114.408794 83 7513ft 190kts
06-Jul-20 13:13 33.631784 -114.347525 85 7526ft 183kts
06-Jul-20 13:14 33.640233 -114.286585 82 7523ft 186kts
06-Jul-20 13:15 33.649454 -114.226159 85 7532ft 183kts
06-Jul-20 13:16 33.656550 -114.164470 96 7536ft 188kts
06-Jul-20 13:17 33.648985 -114.102804 103 7532ft 188kts
06-Jul-20 13:18 33.640423 -114.041446 105 7538ft 185kts
06-Jul-20 13:19 33.632125 -113.980641 104 7538ft 184kts
06-Jul-20 13:20 33.624529 -113.920820 106 7559ft 178kts
06-Jul-20 13:21 33.615070 -113.862148 103 7565ft 181kts
06-Jul-20 13:22 33.605809 -113.801975 106 7566ft 186kts
06-Jul-20 13:23 33.597260 -113.740436 103 7542ft 188kts
06-Jul-20 13:24 33.588808 -113.681212 104 7552ft 175kts
06-Jul-20 13:25 33.579783 -113.622123 106 7545ft 185kts
06-Jul-20 13:26 33.570659 -113.561256 102 7547ft 186kts
06-Jul-20 13:27 33.561514 -113.500639 108 7548ft 184kts
06-Jul-20 13:28 33.551680 -113.440569 105 7556ft 185kts
06-Jul-20 13:29 33.542031 -113.380049 104 7557ft 183kts
06-Jul-20 13:30 33.532612 -113.319859 105 7560ft 183kts
06-Jul-20 13:31 33.523435 -113.261841 103 7569ft 174kts
06-Jul-20 13:32 33.513296 -113.203191 105 7557ft 182kts
06-Jul-20 13:33 33.503751 -113.145483 104 7568ft 173kts
06-Jul-20 13:34 33.493479 -113.087507 105 7560ft 180kts
06-Jul-20 13:35 33.483493 -113.028808 104 7568ft 179kts
06-Jul-20 13:36 33.473777 -112.971445 103 7570ft 173kts
06-Jul-20 13:37 33.464304 -112.913246 103 7570ft 180kts
06-Jul-20 13:38 33.454870 -112.855627 103 7517ft 173kts
06-Jul-20 13:39 33.445328 -112.797409 103 7516ft 180kts
06-Jul-20 13:40 33.421630 -112.749073 135 7807ft 172kts
06-Jul-20 13:41 33.386977 -112.707931 131 7582ft 182kts
06-Jul-20 13:42 33.363376 -112.652544 93 6878ft 199kts
06-Jul-20 13:43 33.363921 -112.587509 85 6338ft 196kts
06-Jul-20 13:44 33.373749 -112.522298 80 5726ft 193kts
06-Jul-20 13:45 33.382916 -112.458872 83 5206ft 191kts
06-Jul-20 13:46 33.392267 -112.396375 80 4621ft 190kts
06-Jul-20 13:47 33.401260 -112.334770 81 4520ft 184kts
06-Jul-20 13:49 33.409681 -112.274095 84 4410ft 183kts
06-Jul-20 13:50 33.411947 -112.213454 94 4088ft 179kts
06-Jul-20 13:51 33.401857 -112.156123 104 3922ft 175kts
06-Jul-20 13:52 33.405275 -112.096678 79 3464ft 184kts
06-Jul-20 13:53 33.416802 -112.034159 82 2591ft 193kts
06-Jul-20 13:54 33.419699 -111.981826 59 2379ft 109kts
06-Jul-20 13:55 33.428801 -111.998903 273 1243ft 86kts
06-Jul-20 13:56 33.428004 -112.010805 200 1138ft 0kts
06-Jul-20 13:57 33.427786 -112.011165 261 1138ft 6kts
06-Jul-20 13:58 33.427762 -112.014370 269 1138ft 12kts
06-Jul-20 13:59 33.427792 -112.019162 270 1138ft 16kts
06-Jul-20 14:00 33.426024 -112.021149 191 1138ft 12kts
06-Jul-20 14:01 33.425564 -112.021273 181 1138ft 0kts
06-Jul-20 14:02 33.425564 -112.021273 181 1138ft 0kts

Navigation Log

Ident Type
Flight plan parsing failed, navigation log unavailable